sensor_id;sensor_type;location;lat;lon;timestamp;P1;durP1;ratioP1;P2;durP2;ratioP2
67274;SDS011;55463;52.324;5.122;2022-12-29T00:02:17;6.63;;;3.22;;
67274;SDS011;55463;52.324;5.122;2022-12-29T00:04:42;5.68;;;3.67;;
67274;SDS011;55463;52.324;5.122;2022-12-29T00:07:08;8.18;;;3.65;;
67274;SDS011;55463;52.324;5.122;2022-12-29T00:09:34;3.95;;;3.33;;
67274;SDS011;55463;52.324;5.122;2022-12-29T00:12:00;4.35;;;3.78;;
67274;SDS011;55463;52.324;5.122;2022-12-29T00:14:28;5.32;;;3.70;;
67274;SDS011;55463;52.324;5.122;2022-12-29T00:17:12;6.82;;;3.10;;
67274;SDS011;55463;52.324;5.122;2022-12-29T00:19:38;6.10;;;3.38;;
67274;SDS011;55463;52.324;5.122;2022-12-29T00:22:22;6.13;;;3.28;;
67274;SDS011;55463;52.324;5.122;2022-12-29T00:25:07;3.40;;;3.10;;
67274;SDS011;55463;52.324;5.122;2022-12-29T00:27:52;5.10;;;3.50;;
67274;SDS011;55463;52.324;5.122;2022-12-29T00:30:36;2.95;;;2.70;;
67274;SDS011;55463;52.324;5.122;2022-12-29T00:33:21;3.70;;;2.85;;
67274;SDS011;55463;52.324;5.122;2022-12-29T00:36:10;4.80;;;2.90;;
67274;SDS011;55463;52.324;5.122;2022-12-29T00:38:40;5.72;;;2.63;;
67274;SDS011;55463;52.324;5.122;2022-12-29T00:41:28;3.17;;;2.30;;
67274;SDS011;55463;52.324;5.122;2022-12-29T00:44:12;4.35;;;2.63;;
67274;SDS011;55463;52.324;5.122;2022-12-29T00:46:39;4.85;;;2.50;;
67274;SDS011;55463;52.324;5.122;2022-12-29T00:49:06;4.18;;;2.53;;
67274;SDS011;55463;52.324;5.122;2022-12-29T00:51:52;4.35;;;2.28;;
67274;SDS011;55463;52.324;5.122;2022-12-29T00:54:18;4.40;;;2.30;;
67274;SDS011;55463;52.324;5.122;2022-12-29T00:56:45;4.03;;;2.38;;
67274;SDS011;55463;52.324;5.122;2022-12-29T00:59:12;4.72;;;2.50;;
67274;SDS011;55463;52.324;5.122;2022-12-29T01:01:38;2.38;;;2.28;;
67274;SDS011;55463;52.324;5.122;2022-12-29T01:04:04;4.63;;;2.50;;
67274;SDS011;55463;52.324;5.122;2022-12-29T01:06:30;2.85;;;2.13;;
67274;SDS011;55463;52.324;5.122;2022-12-29T01:08:56;3.45;;;2.20;;
67274;SDS011;55463;52.324;5.122;2022-12-29T01:11:40;3.55;;;2.10;;
67274;SDS011;55463;52.324;5.122;2022-12-29T01:14:06;6.75;;;2.03;;
67274;SDS011;55463;52.324;5.122;2022-12-29T01:16:32;3.05;;;2.03;;
67274;SDS011;55463;52.324;5.122;2022-12-29T01:18:58;4.38;;;1.92;;
67274;SDS011;55463;52.324;5.122;2022-12-29T01:21:23;2.95;;;2.17;;
67274;SDS011;55463;52.324;5.122;2022-12-29T01:23:49;3.15;;;2.00;;
67274;SDS011;55463;52.324;5.122;2022-12-29T01:26:15;3.15;;;1.90;;
67274;SDS011;55463;52.324;5.122;2022-12-29T01:28:41;2.33;;;1.90;;
67274;SDS011;55463;52.324;5.122;2022-12-29T01:31:08;3.90;;;2.10;;
67274;SDS011;55463;52.324;5.122;2022-12-29T01:33:34;3.33;;;2.00;;
67274;SDS011;55463;52.324;5.122;2022-12-29T01:36:02;4.45;;;1.95;;
67274;SDS011;55463;52.324;5.122;2022-12-29T01:38:28;5.45;;;2.10;;
67274;SDS011;55463;52.324;5.122;2022-12-29T01:40:53;4.22;;;1.92;;
67274;SDS011;55463;52.324;5.122;2022-12-29T01:43:19;3.95;;;1.58;;
67274;SDS011;55463;52.324;5.122;2022-12-29T01:45:48;2.83;;;1.88;;
67274;SDS011;55463;52.324;5.122;2022-12-29T01:48:16;3.28;;;1.75;;
67274;SDS011;55463;52.324;5.122;2022-12-29T01:50:51;1.90;;;1.70;;
67274;SDS011;55463;52.324;5.122;2022-12-29T01:53:19;3.80;;;1.80;;
67274;SDS011;55463;52.324;5.122;2022-12-29T01:55:52;2.72;;;1.92;;
67274;SDS011;55463;52.324;5.122;2022-12-29T01:58:22;1.70;;;1.50;;
67274;SDS011;55463;52.324;5.122;2022-12-29T02:00:49;1.60;;;1.50;;
67274;SDS011;55463;52.324;5.122;2022-12-29T02:03:15;3.88;;;1.60;;
67274;SDS011;55463;52.324;5.122;2022-12-29T02:05:44;1.98;;;1.83;;
67274;SDS011;55463;52.324;5.122;2022-12-29T02:08:15;1.77;;;1.67;;
67274;SDS011;55463;52.324;5.122;2022-12-29T02:10:41;2.35;;;1.65;;
67274;SDS011;55463;52.324;5.122;2022-12-29T02:13:08;1.92;;;1.65;;
67274;SDS011;55463;52.324;5.122;2022-12-29T02:18:23;1.58;;;1.48;;
67274;SDS011;55463;52.324;5.122;2022-12-29T02:24:04;2.25;;;1.70;;
67274;SDS011;55463;52.324;5.122;2022-12-29T02:26:38;4.65;;;1.80;;
67274;SDS011;55463;52.324;5.122;2022-12-29T02:32:19;6.30;;;2.10;;
67274;SDS011;55463;52.324;5.122;2022-12-29T02:35:06;3.58;;;1.60;;
67274;SDS011;55463;52.324;5.122;2022-12-29T02:40:23;4.30;;;1.73;;
67274;SDS011;55463;52.324;5.122;2022-12-29T02:45:47;5.35;;;1.55;;
67274;SDS011;55463;52.324;5.122;2022-12-29T02:48:29;7.78;;;1.60;;
67274;SDS011;55463;52.324;5.122;2022-12-29T02:51:08;5.82;;;1.40;;
67274;SDS011;55463;52.324;5.122;2022-12-29T02:53:40;6.45;;;1.88;;
67274;SDS011;55463;52.324;5.122;2022-12-29T02:56:25;4.88;;;1.25;;
67274;SDS011;55463;52.324;5.122;2022-12-29T02:58:50;4.90;;;1.42;;
67274;SDS011;55463;52.324;5.122;2022-12-29T03:12:30;7.70;;;1.90;;
67274;SDS011;55463;52.324;5.122;2022-12-29T03:18:12;4.50;;;2.17;;
67274;SDS011;55463;52.324;5.122;2022-12-29T03:20:55;6.65;;;1.90;;
67274;SDS011;55463;52.324;5.122;2022-12-29T03:23:27;7.43;;;1.55;;
67274;SDS011;55463;52.324;5.122;2022-12-29T03:25:55;6.43;;;1.75;;
67274;SDS011;55463;52.324;5.122;2022-12-29T03:28:24;7.03;;;1.80;;
67274;SDS011;55463;52.324;5.122;2022-12-29T03:30:53;15.40;;;2.63;;
67274;SDS011;55463;52.324;5.122;2022-12-29T03:33:23;8.15;;;2.22;;
67274;SDS011;55463;52.324;5.122;2022-12-29T03:35:50;3.40;;;1.83;;
67274;SDS011;55463;52.324;5.122;2022-12-29T03:41:08;11.60;;;2.05;;
67274;SDS011;55463;52.324;5.122;2022-12-29T03:43:37;12.85;;;2.13;;
67274;SDS011;55463;52.324;5.122;2022-12-29T03:46:02;16.55;;;2.38;;
67274;SDS011;55463;52.324;5.122;2022-12-29T03:48:28;13.70;;;2.30;;
67274;SDS011;55463;52.324;5.122;2022-12-29T03:50:53;11.75;;;2.38;;
67274;SDS011;55463;52.324;5.122;2022-12-29T03:53:18;23.42;;;2.80;;
67274;SDS011;55463;52.324;5.122;2022-12-29T03:55:44;9.60;;;2.00;;
67274;SDS011;55463;52.324;5.122;2022-12-29T03:58:09;13.80;;;2.63;;
67274;SDS011;55463;52.324;5.122;2022-12-29T04:00:35;11.63;;;2.67;;
67274;SDS011;55463;52.324;5.122;2022-12-29T04:03:00;9.00;;;1.83;;
67274;SDS011;55463;52.324;5.122;2022-12-29T04:05:26;10.77;;;1.98;;
67274;SDS011;55463;52.324;5.122;2022-12-29T04:07:51;9.35;;;1.90;;
67274;SDS011;55463;52.324;5.122;2022-12-29T04:10:17;11.13;;;2.20;;
67274;SDS011;55463;52.324;5.122;2022-12-29T04:12:42;13.43;;;2.17;;
67274;SDS011;55463;52.324;5.122;2022-12-29T04:15:08;12.68;;;1.95;;
67274;SDS011;55463;52.324;5.122;2022-12-29T04:17:34;12.10;;;1.80;;
67274;SDS011;55463;52.324;5.122;2022-12-29T04:19:59;9.65;;;1.80;;
67274;SDS011;55463;52.324;5.122;2022-12-29T04:22:43;12.93;;;2.22;;
67274;SDS011;55463;52.324;5.122;2022-12-29T04:25:08;14.75;;;1.98;;
67274;SDS011;55463;52.324;5.122;2022-12-29T04:27:34;10.13;;;1.85;;
67274;SDS011;55463;52.324;5.122;2022-12-29T04:29:59;11.52;;;2.05;;
67274;SDS011;55463;52.324;5.122;2022-12-29T04:32:24;6.60;;;1.60;;
67274;SDS011;55463;52.324;5.122;2022-12-29T04:34:50;8.82;;;1.90;;
67274;SDS011;55463;52.324;5.122;2022-12-29T04:37:15;10.13;;;2.00;;
67274;SDS011;55463;52.324;5.122;2022-12-29T04:39:40;7.60;;;1.40;;
67274;SDS011;55463;52.324;5.122;2022-12-29T04:42:06;7.65;;;1.52;;
67274;SDS011;55463;52.324;5.122;2022-12-29T04:44:31;8.07;;;1.58;;
67274;SDS011;55463;52.324;5.122;2022-12-29T04:46:56;4.45;;;1.60;;
67274;SDS011;55463;52.324;5.122;2022-12-29T04:49:22;11.20;;;2.10;;
67274;SDS011;55463;52.324;5.122;2022-12-29T04:51:47;14.95;;;2.13;;
67274;SDS011;55463;52.324;5.122;2022-12-29T04:54:12;9.43;;;1.85;;
67274;SDS011;55463;52.324;5.122;2022-12-29T04:56:38;14.30;;;2.10;;
67274;SDS011;55463;52.324;5.122;2022-12-29T04:59:03;15.18;;;2.22;;
67274;SDS011;55463;52.324;5.122;2022-12-29T05:01:28;11.18;;;2.72;;
67274;SDS011;55463;52.324;5.122;2022-12-29T05:03:54;14.40;;;2.45;;
67274;SDS011;55463;52.324;5.122;2022-12-29T05:06:19;16.30;;;2.75;;
67274;SDS011;55463;52.324;5.122;2022-12-29T05:08:45;19.83;;;2.60;;
67274;SDS011;55463;52.324;5.122;2022-12-29T05:11:10;16.92;;;2.85;;
67274;SDS011;55463;52.324;5.122;2022-12-29T05:13:35;15.98;;;2.50;;
67274;SDS011;55463;52.324;5.122;2022-12-29T05:16:01;11.55;;;1.98;;
67274;SDS011;55463;52.324;5.122;2022-12-29T05:18:26;11.57;;;1.95;;
67274;SDS011;55463;52.324;5.122;2022-12-29T05:20:51;10.63;;;2.90;;
67274;SDS011;55463;52.324;5.122;2022-12-29T05:23:17;10.25;;;1.70;;
67274;SDS011;55463;52.324;5.122;2022-12-29T05:25:42;10.50;;;2.35;;
67274;SDS011;55463;52.324;5.122;2022-12-29T05:28:10;15.15;;;2.28;;
67274;SDS011;55463;52.324;5.122;2022-12-29T05:30:35;5.80;;;1.90;;
67274;SDS011;55463;52.324;5.122;2022-12-29T05:33:00;12.93;;;2.30;;
67274;SDS011;55463;52.324;5.122;2022-12-29T05:35:26;9.40;;;2.53;;
67274;SDS011;55463;52.324;5.122;2022-12-29T05:37:51;9.57;;;2.40;;
67274;SDS011;55463;52.324;5.122;2022-12-29T05:40:16;9.60;;;2.75;;
67274;SDS011;55463;52.324;5.122;2022-12-29T05:42:42;14.75;;;2.35;;
67274;SDS011;55463;52.324;5.122;2022-12-29T05:45:07;15.55;;;2.55;;
67274;SDS011;55463;52.324;5.122;2022-12-29T05:47:33;10.48;;;2.30;;
67274;SDS011;55463;52.324;5.122;2022-12-29T05:49:59;11.65;;;2.60;;
67274;SDS011;55463;52.324;5.122;2022-12-29T05:52:25;18.50;;;2.33;;
67274;SDS011;55463;52.324;5.122;2022-12-29T05:54:50;7.35;;;2.25;;
67274;SDS011;55463;52.324;5.122;2022-12-29T05:57:16;15.13;;;2.55;;
67274;SDS011;55463;52.324;5.122;2022-12-29T05:59:41;14.18;;;2.38;;
67274;SDS011;55463;52.324;5.122;2022-12-29T06:02:06;12.23;;;2.25;;
67274;SDS011;55463;52.324;5.122;2022-12-29T06:04:32;10.52;;;2.40;;
67274;SDS011;55463;52.324;5.122;2022-12-29T06:06:57;10.70;;;2.60;;
67274;SDS011;55463;52.324;5.122;2022-12-29T06:09:22;13.27;;;2.47;;
67274;SDS011;55463;52.324;5.122;2022-12-29T06:11:47;14.98;;;2.55;;
67274;SDS011;55463;52.324;5.122;2022-12-29T06:14:13;16.52;;;2.50;;
67274;SDS011;55463;52.324;5.122;2022-12-29T06:16:38;12.43;;;2.33;;
67274;SDS011;55463;52.324;5.122;2022-12-29T06:19:04;14.48;;;2.83;;
67274;SDS011;55463;52.324;5.122;2022-12-29T06:21:29;11.60;;;2.00;;
67274;SDS011;55463;52.324;5.122;2022-12-29T06:23:54;17.33;;;2.53;;
67274;SDS011;55463;52.324;5.122;2022-12-29T06:26:20;12.80;;;3.17;;
67274;SDS011;55463;52.324;5.122;2022-12-29T06:28:45;16.77;;;2.90;;
67274;SDS011;55463;52.324;5.122;2022-12-29T06:31:10;19.98;;;2.53;;
67274;SDS011;55463;52.324;5.122;2022-12-29T06:33:36;14.60;;;2.30;;
67274;SDS011;55463;52.324;5.122;2022-12-29T06:36:02;23.40;;;4.18;;
67274;SDS011;55463;52.324;5.122;2022-12-29T06:38:28;11.13;;;2.10;;
67274;SDS011;55463;52.324;5.122;2022-12-29T06:40:53;11.85;;;2.42;;
67274;SDS011;55463;52.324;5.122;2022-12-29T06:43:19;9.73;;;2.17;;
67274;SDS011;55463;52.324;5.122;2022-12-29T06:45:44;15.20;;;2.78;;
67274;SDS011;55463;52.324;5.122;2022-12-29T06:48:09;15.30;;;2.60;;
67274;SDS011;55463;52.324;5.122;2022-12-29T06:50:35;13.27;;;2.90;;
67274;SDS011;55463;52.324;5.122;2022-12-29T06:53:00;12.68;;;2.80;;
67274;SDS011;55463;52.324;5.122;2022-12-29T06:55:26;13.93;;;2.40;;
67274;SDS011;55463;52.324;5.122;2022-12-29T06:57:53;15.93;;;2.63;;
67274;SDS011;55463;52.324;5.122;2022-12-29T07:00:20;19.25;;;2.55;;
67274;SDS011;55463;52.324;5.122;2022-12-29T07:02:46;17.05;;;2.45;;
67274;SDS011;55463;52.324;5.122;2022-12-29T07:05:11;19.55;;;3.15;;
67274;SDS011;55463;52.324;5.122;2022-12-29T07:07:38;8.70;;;2.00;;
67274;SDS011;55463;52.324;5.122;2022-12-29T07:10:04;14.15;;;2.60;;
67274;SDS011;55463;52.324;5.122;2022-12-29T07:12:29;22.85;;;3.42;;
67274;SDS011;55463;52.324;5.122;2022-12-29T07:14:54;25.35;;;3.10;;
67274;SDS011;55463;52.324;5.122;2022-12-29T07:17:20;18.38;;;2.80;;
67274;SDS011;55463;52.324;5.122;2022-12-29T07:19:45;26.17;;;4.05;;
67274;SDS011;55463;52.324;5.122;2022-12-29T07:22:11;16.38;;;3.15;;
67274;SDS011;55463;52.324;5.122;2022-12-29T07:24:36;20.10;;;3.67;;
67274;SDS011;55463;52.324;5.122;2022-12-29T07:27:01;27.05;;;3.28;;
67274;SDS011;55463;52.324;5.122;2022-12-29T07:29:27;22.40;;;3.83;;
67274;SDS011;55463;52.324;5.122;2022-12-29T07:31:52;24.77;;;3.60;;
67274;SDS011;55463;52.324;5.122;2022-12-29T07:34:17;25.40;;;3.80;;
67274;SDS011;55463;52.324;5.122;2022-12-29T07:36:43;19.00;;;2.83;;
67274;SDS011;55463;52.324;5.122;2022-12-29T07:39:08;17.95;;;3.35;;
67274;SDS011;55463;52.324;5.122;2022-12-29T07:41:33;23.58;;;3.15;;
67274;SDS011;55463;52.324;5.122;2022-12-29T07:43:59;18.67;;;3.15;;
67274;SDS011;55463;52.324;5.122;2022-12-29T07:46:25;12.35;;;2.70;;
67274;SDS011;55463;52.324;5.122;2022-12-29T07:48:50;16.85;;;2.55;;
67274;SDS011;55463;52.324;5.122;2022-12-29T07:51:15;17.48;;;2.42;;
67274;SDS011;55463;52.324;5.122;2022-12-29T07:53:41;16.55;;;2.60;;
67274;SDS011;55463;52.324;5.122;2022-12-29T07:56:06;12.90;;;2.30;;
67274;SDS011;55463;52.324;5.122;2022-12-29T07:58:31;15.30;;;2.38;;
67274;SDS011;55463;52.324;5.122;2022-12-29T08:00:57;8.98;;;2.35;;
67274;SDS011;55463;52.324;5.122;2022-12-29T08:03:22;10.45;;;2.60;;
67274;SDS011;55463;52.324;5.122;2022-12-29T08:05:49;8.63;;;2.15;;
67274;SDS011;55463;52.324;5.122;2022-12-29T08:08:15;13.52;;;2.28;;
67274;SDS011;55463;52.324;5.122;2022-12-29T08:10:40;10.38;;;2.50;;
67274;SDS011;55463;52.324;5.122;2022-12-29T08:13:06;17.20;;;2.60;;
67274;SDS011;55463;52.324;5.122;2022-12-29T08:15:31;17.50;;;2.95;;
67274;SDS011;55463;52.324;5.122;2022-12-29T08:17:57;16.50;;;2.75;;
67274;SDS011;55463;52.324;5.122;2022-12-29T08:20:22;16.50;;;2.25;;
67274;SDS011;55463;52.324;5.122;2022-12-29T08:22:48;19.75;;;2.85;;
67274;SDS011;55463;52.324;5.122;2022-12-29T08:25:13;18.60;;;2.72;;
67274;SDS011;55463;52.324;5.122;2022-12-29T08:27:39;25.00;;;2.92;;
67274;SDS011;55463;52.324;5.122;2022-12-29T08:30:04;18.27;;;3.08;;
67274;SDS011;55463;52.324;5.122;2022-12-29T08:32:30;14.50;;;2.92;;
67274;SDS011;55463;52.324;5.122;2022-12-29T08:34:55;21.13;;;2.95;;
67274;SDS011;55463;52.324;5.122;2022-12-29T08:37:21;17.02;;;2.55;;
67274;SDS011;55463;52.324;5.122;2022-12-29T08:39:47;18.42;;;2.97;;
67274;SDS011;55463;52.324;5.122;2022-12-29T08:42:12;15.75;;;2.60;;
67274;SDS011;55463;52.324;5.122;2022-12-29T08:44:37;18.55;;;2.85;;
67274;SDS011;55463;52.324;5.122;2022-12-29T08:47:03;19.85;;;2.90;;
67274;SDS011;55463;52.324;5.122;2022-12-29T08:49:28;18.83;;;2.60;;
67274;SDS011;55463;52.324;5.122;2022-12-29T08:51:54;14.05;;;2.70;;
67274;SDS011;55463;52.324;5.122;2022-12-29T08:54:19;20.92;;;3.33;;
67274;SDS011;55463;52.324;5.122;2022-12-29T08:56:44;18.15;;;3.03;;
67274;SDS011;55463;52.324;5.122;2022-12-29T08:59:10;19.17;;;3.08;;
67274;SDS011;55463;52.324;5.122;2022-12-29T09:01:35;24.08;;;3.22;;
67274;SDS011;55463;52.324;5.122;2022-12-29T09:04:01;22.38;;;2.78;;
67274;SDS011;55463;52.324;5.122;2022-12-29T09:06:27;17.88;;;2.55;;
67274;SDS011;55463;52.324;5.122;2022-12-29T09:08:55;18.10;;;2.80;;
67274;SDS011;55463;52.324;5.122;2022-12-29T09:11:23;14.30;;;2.30;;
67274;SDS011;55463;52.324;5.122;2022-12-29T09:13:49;21.48;;;2.90;;
67274;SDS011;55463;52.324;5.122;2022-12-29T09:16:16;19.98;;;2.92;;
67274;SDS011;55463;52.324;5.122;2022-12-29T09:18:43;11.45;;;2.50;;
67274;SDS011;55463;52.324;5.122;2022-12-29T09:21:09;17.27;;;2.78;;
67274;SDS011;55463;52.324;5.122;2022-12-29T09:23:35;15.10;;;2.80;;
67274;SDS011;55463;52.324;5.122;2022-12-29T09:26:01;13.82;;;3.22;;
67274;SDS011;55463;52.324;5.122;2022-12-29T09:28:27;15.65;;;3.35;;
67274;SDS011;55463;52.324;5.122;2022-12-29T09:30:54;19.52;;;3.05;;
67274;SDS011;55463;52.324;5.122;2022-12-29T09:33:20;21.00;;;3.25;;
67274;SDS011;55463;52.324;5.122;2022-12-29T09:35:49;15.57;;;2.78;;
67274;SDS011;55463;52.324;5.122;2022-12-29T09:38:19;15.65;;;2.65;;
67274;SDS011;55463;52.324;5.122;2022-12-29T09:40:45;10.85;;;2.40;;
67274;SDS011;55463;52.324;5.122;2022-12-29T09:45:55;23.33;;;3.20;;
67274;SDS011;55463;52.324;5.122;2022-12-29T09:48:43;17.10;;;3.10;;
67274;SDS011;55463;52.324;5.122;2022-12-29T09:51:13;17.92;;;3.03;;
67274;SDS011;55463;52.324;5.122;2022-12-29T09:53:42;19.48;;;3.08;;
67274;SDS011;55463;52.324;5.122;2022-12-29T09:56:21;19.92;;;2.67;;
67274;SDS011;55463;52.324;5.122;2022-12-29T09:58:52;17.75;;;2.97;;
67274;SDS011;55463;52.324;5.122;2022-12-29T10:01:33;15.80;;;3.05;;
67274;SDS011;55463;52.324;5.122;2022-12-29T10:06:41;15.75;;;2.78;;
67274;SDS011;55463;52.324;5.122;2022-12-29T10:12:06;22.55;;;3.33;;
67274;SDS011;55463;52.324;5.122;2022-12-29T10:25:40;16.65;;;3.10;;
67274;SDS011;55463;52.324;5.122;2022-12-29T10:28:50;21.55;;;3.83;;
67274;SDS011;55463;52.324;5.122;2022-12-29T10:30:59;31.63;;;4.60;;
67274;SDS011;55463;52.324;5.122;2022-12-29T10:33:29;19.45;;;3.50;;
67274;SDS011;55463;52.324;5.122;2022-12-29T10:36:02;24.30;;;3.97;;
67274;SDS011;55463;52.324;5.122;2022-12-29T10:38:39;26.05;;;3.47;;
67274;SDS011;55463;52.324;5.122;2022-12-29T10:41:24;34.15;;;4.20;;
67274;SDS011;55463;52.324;5.122;2022-12-29T10:43:54;31.05;;;4.40;;
67274;SDS011;55463;52.324;5.122;2022-12-29T10:46:32;28.42;;;3.50;;
67274;SDS011;55463;52.324;5.122;2022-12-29T10:48:59;26.15;;;3.92;;
67274;SDS011;55463;52.324;5.122;2022-12-29T10:51:28;24.45;;;4.45;;
67274;SDS011;55463;52.324;5.122;2022-12-29T10:53:59;22.83;;;3.30;;
67274;SDS011;55463;52.324;5.122;2022-12-29T10:58:59;31.33;;;3.58;;
67274;SDS011;55463;52.324;5.122;2022-12-29T11:01:32;36.25;;;4.32;;
67274;SDS011;55463;52.324;5.122;2022-12-29T11:04:03;26.70;;;5.28;;
67274;SDS011;55463;52.324;5.122;2022-12-29T11:06:40;30.88;;;4.82;;
67274;SDS011;55463;52.324;5.122;2022-12-29T11:09:15;30.10;;;4.40;;
67274;SDS011;55463;52.324;5.122;2022-12-29T11:11:44;25.23;;;3.63;;
67274;SDS011;55463;52.324;5.122;2022-12-29T11:14:14;27.35;;;4.07;;
67274;SDS011;55463;52.324;5.122;2022-12-29T11:16:43;32.42;;;4.47;;
67274;SDS011;55463;52.324;5.122;2022-12-29T11:19:23;20.35;;;3.78;;
67274;SDS011;55463;52.324;5.122;2022-12-29T11:21:50;22.60;;;4.18;;
67274;SDS011;55463;52.324;5.122;2022-12-29T11:24:21;36.08;;;4.80;;
67274;SDS011;55463;52.324;5.122;2022-12-29T11:26:49;27.75;;;4.53;;
67274;SDS011;55463;52.324;5.122;2022-12-29T11:29:21;23.35;;;3.83;;
67274;SDS011;55463;52.324;5.122;2022-12-29T11:31:50;23.55;;;3.75;;
67274;SDS011;55463;52.324;5.122;2022-12-29T11:34:20;22.55;;;3.78;;
67274;SDS011;55463;52.324;5.122;2022-12-29T11:37:02;27.87;;;4.53;;
67274;SDS011;55463;52.324;5.122;2022-12-29T11:42:16;27.35;;;3.83;;
67274;SDS011;55463;52.324;5.122;2022-12-29T11:44:46;28.58;;;3.63;;
67274;SDS011;55463;52.324;5.122;2022-12-29T11:47:25;28.45;;;3.63;;
67274;SDS011;55463;52.324;5.122;2022-12-29T11:49:55;18.80;;;3.65;;
67274;SDS011;55463;52.324;5.122;2022-12-29T11:52:24;23.45;;;3.03;;
67274;SDS011;55463;52.324;5.122;2022-12-29T11:54:53;19.67;;;3.05;;
67274;SDS011;55463;52.324;5.122;2022-12-29T11:57:20;15.23;;;2.30;;
67274;SDS011;55463;52.324;5.122;2022-12-29T11:59:54;25.98;;;3.78;;
67274;SDS011;55463;52.324;5.122;2022-12-29T12:05:01;17.13;;;2.70;;
67274;SDS011;55463;52.324;5.122;2022-12-29T12:07:40;22.55;;;2.97;;
67274;SDS011;55463;52.324;5.122;2022-12-29T12:10:30;14.63;;;2.70;;
67274;SDS011;55463;52.324;5.122;2022-12-29T12:13:51;18.95;;;3.00;;
67274;SDS011;55463;52.324;5.122;2022-12-29T12:16:15;21.52;;;3.15;;
67274;SDS011;55463;52.324;5.122;2022-12-29T12:29:33;15.52;;;2.40;;
67274;SDS011;55463;52.324;5.122;2022-12-29T12:34:59;15.27;;;2.53;;
67274;SDS011;55463;52.324;5.122;2022-12-29T12:38:00;14.43;;;3.65;;
67274;SDS011;55463;52.324;5.122;2022-12-29T12:43:41;18.77;;;2.50;;
67274;SDS011;55463;52.324;5.122;2022-12-29T12:48:53;15.00;;;2.80;;
67274;SDS011;55463;52.324;5.122;2022-12-29T12:51:37;14.30;;;2.10;;
67274;SDS011;55463;52.324;5.122;2022-12-29T12:59:52;11.93;;;1.65;;
67274;SDS011;55463;52.324;5.122;2022-12-29T13:02:40;13.43;;;2.35;;
67274;SDS011;55463;52.324;5.122;2022-12-29T13:11:11;10.77;;;2.00;;
67274;SDS011;55463;52.324;5.122;2022-12-29T13:17:00;14.23;;;2.88;;
67274;SDS011;55463;52.324;5.122;2022-12-29T13:19:38;21.52;;;3.05;;
67274;SDS011;55463;52.324;5.122;2022-12-29T13:30:14;15.45;;;2.58;;
67274;SDS011;55463;52.324;5.122;2022-12-29T13:35:19;18.25;;;2.65;;
67274;SDS011;55463;52.324;5.122;2022-12-29T13:37:54;15.88;;;2.55;;
67274;SDS011;55463;52.324;5.122;2022-12-29T13:40:24;17.13;;;2.63;;
67274;SDS011;55463;52.324;5.122;2022-12-29T13:42:53;11.15;;;2.58;;
67274;SDS011;55463;52.324;5.122;2022-12-29T13:45:21;17.55;;;2.67;;
67274;SDS011;55463;52.324;5.122;2022-12-29T13:47:55;20.65;;;3.40;;
67274;SDS011;55463;52.324;5.122;2022-12-29T13:50:28;9.00;;;2.25;;
67274;SDS011;55463;52.324;5.122;2022-12-29T13:53:02;18.77;;;2.92;;
67274;SDS011;55463;52.324;5.122;2022-12-29T13:56:10;12.95;;;2.53;;
67274;SDS011;55463;52.324;5.122;2022-12-29T13:58:41;14.98;;;2.35;;
67274;SDS011;55463;52.324;5.122;2022-12-29T14:03:55;14.60;;;2.70;;
67274;SDS011;55463;52.324;5.122;2022-12-29T14:06:26;18.25;;;3.17;;
67274;SDS011;55463;52.324;5.122;2022-12-29T14:08:57;17.98;;;2.60;;
67274;SDS011;55463;52.324;5.122;2022-12-29T14:13:56;20.73;;;3.10;;
67274;SDS011;55463;52.324;5.122;2022-12-29T14:18:51;17.17;;;3.40;;
67274;SDS011;55463;52.324;5.122;2022-12-29T14:21:20;16.70;;;2.95;;
67274;SDS011;55463;52.324;5.122;2022-12-29T14:23:49;17.30;;;3.00;;
67274;SDS011;55463;52.324;5.122;2022-12-29T14:28:53;16.60;;;2.72;;
67274;SDS011;55463;52.324;5.122;2022-12-29T14:34:44;25.05;;;3.00;;
67274;SDS011;55463;52.324;5.122;2022-12-29T14:36:39;11.40;;;2.28;;
67274;SDS011;55463;52.324;5.122;2022-12-29T14:44:31;11.73;;;2.88;;
67274;SDS011;55463;52.324;5.122;2022-12-29T14:46:59;12.48;;;2.75;;
67274;SDS011;55463;52.324;5.122;2022-12-29T14:49:31;13.52;;;3.65;;
67274;SDS011;55463;52.324;5.122;2022-12-29T14:52:08;8.85;;;2.80;;
67274;SDS011;55463;52.324;5.122;2022-12-29T14:54:41;14.30;;;2.85;;
67274;SDS011;55463;52.324;5.122;2022-12-29T14:57:13;12.13;;;2.40;;
67274;SDS011;55463;52.324;5.122;2022-12-29T14:59:44;12.00;;;2.33;;
67274;SDS011;55463;52.324;5.122;2022-12-29T15:02:19;18.70;;;2.58;;
67274;SDS011;55463;52.324;5.122;2022-12-29T15:04:46;13.90;;;2.70;;
67274;SDS011;55463;52.324;5.122;2022-12-29T15:07:12;10.35;;;2.65;;
67274;SDS011;55463;52.324;5.122;2022-12-29T15:09:40;11.95;;;2.90;;
67274;SDS011;55463;52.324;5.122;2022-12-29T15:12:22;13.77;;;2.40;;
67274;SDS011;55463;52.324;5.122;2022-12-29T15:14:59;13.55;;;3.10;;
67274;SDS011;55463;52.324;5.122;2022-12-29T15:17:26;9.43;;;2.20;;
67274;SDS011;55463;52.324;5.122;2022-12-29T15:19:57;12.40;;;2.45;;
67274;SDS011;55463;52.324;5.122;2022-12-29T15:22:24;10.20;;;3.08;;
67274;SDS011;55463;52.324;5.122;2022-12-29T15:24:51;6.82;;;2.08;;
67274;SDS011;55463;52.324;5.122;2022-12-29T15:27:24;13.50;;;2.58;;
67274;SDS011;55463;52.324;5.122;2022-12-29T15:29:58;9.25;;;2.45;;
67274;SDS011;55463;52.324;5.122;2022-12-29T15:32:27;9.82;;;2.65;;
67274;SDS011;55463;52.324;5.122;2022-12-29T15:34:55;18.92;;;3.40;;
67274;SDS011;55463;52.324;5.122;2022-12-29T15:37:26;16.17;;;3.03;;
67274;SDS011;55463;52.324;5.122;2022-12-29T15:39:54;25.23;;;3.13;;
67274;SDS011;55463;52.324;5.122;2022-12-29T15:42:29;10.02;;;2.65;;
67274;SDS011;55463;52.324;5.122;2022-12-29T15:45:04;14.13;;;4.07;;
67274;SDS011;55463;52.324;5.122;2022-12-29T15:47:34;22.25;;;5.15;;
67274;SDS011;55463;52.324;5.122;2022-12-29T15:50:04;15.60;;;4.63;;
67274;SDS011;55463;52.324;5.122;2022-12-29T15:52:32;15.68;;;4.22;;
67274;SDS011;55463;52.324;5.122;2022-12-29T15:54:58;16.17;;;4.20;;
67274;SDS011;55463;52.324;5.122;2022-12-29T15:57:30;11.20;;;3.00;;
67274;SDS011;55463;52.324;5.122;2022-12-29T16:00:01;25.73;;;5.07;;
67274;SDS011;55463;52.324;5.122;2022-12-29T16:02:27;15.63;;;3.60;;
67274;SDS011;55463;52.324;5.122;2022-12-29T16:04:53;27.75;;;5.35;;
67274;SDS011;55463;52.324;5.122;2022-12-29T16:07:36;17.73;;;4.03;;
67274;SDS011;55463;52.324;5.122;2022-12-29T16:10:02;19.83;;;3.47;;
67274;SDS011;55463;52.324;5.122;2022-12-29T16:12:32;27.13;;;5.22;;
67274;SDS011;55463;52.324;5.122;2022-12-29T16:15:03;25.52;;;5.53;;
67274;SDS011;55463;52.324;5.122;2022-12-29T16:17:33;18.50;;;3.67;;
67274;SDS011;55463;52.324;5.122;2022-12-29T16:20:18;23.52;;;3.88;;
67274;SDS011;55463;52.324;5.122;2022-12-29T16:22:46;19.02;;;3.20;;
67274;SDS011;55463;52.324;5.122;2022-12-29T16:25:30;20.48;;;2.80;;
67274;SDS011;55463;52.324;5.122;2022-12-29T16:27:59;24.08;;;2.90;;
67274;SDS011;55463;52.324;5.122;2022-12-29T16:30:29;18.45;;;3.08;;
67274;SDS011;55463;52.324;5.122;2022-12-29T16:32:57;21.92;;;2.75;;
67274;SDS011;55463;52.324;5.122;2022-12-29T16:35:26;18.17;;;2.72;;
67274;SDS011;55463;52.324;5.122;2022-12-29T16:43:24;18.95;;;3.63;;
67274;SDS011;55463;52.324;5.122;2022-12-29T16:48:36;17.60;;;2.97;;
67274;SDS011;55463;52.324;5.122;2022-12-29T16:51:13;17.55;;;3.00;;
67274;SDS011;55463;52.324;5.122;2022-12-29T16:53:41;14.75;;;2.80;;
67274;SDS011;55463;52.324;5.122;2022-12-29T16:56:23;19.98;;;3.05;;
67274;SDS011;55463;52.324;5.122;2022-12-29T16:59:00;18.55;;;3.17;;
67274;SDS011;55463;52.324;5.122;2022-12-29T17:01:46;17.27;;;3.58;;
67274;SDS011;55463;52.324;5.122;2022-12-29T17:04:12;21.90;;;3.60;;